Napa, CA

2:17 AM PDT on September 17, 2014 (GMT -0700)
Old Soda Springs Rd 850 ft | Change Station
CLOSE
Current Station
Personal Weather Station
Location: Napa, CA
Elevation: 846 ft
Nearby Weather Stations

Elev 846 ft 38.38 °N, 122.27 °W | Updated 22 seconds ago

Mostly Cloudy
Mostly Cloudy
61.1 °F
Feels Like 61.1 °F
N
0.0
Wind Variable Wind from East
Gusts 0.0 mph

Today
High -- | Low -- °F
--% Chance of Precip.
Yesterday
High -- | Low -- °F
Precip. -- in
6:52 AM 7:14 PM
Last Quarter, 37% visible
Pressure 29.79 in
Visibility 10.0 miles
Clouds Clear
Dew Point 54 °F
Humidity 79%
Rainfall 0.00 in
Snow Depth Not available.
UV 0 out of 12
Pollen 6.40 out of 12
Ozone Good
PM2.5 Good
Flu Activity Not available.
METAR KAPC 170854Z AUTO 31004KT 10SM CLR 15/13 A2981 RMK AO2 SLP086 T01500133 56004 $

More Conditions Fewer Conditions

Pressure 29.79 in
Visibility 10.0 miles
Clouds Clear
Dew Point 54 °F
Humidity 79%
Rainfall 0.00 in
Snow Depth Not available.
UV 0 out of 12
Pollen 6.40 out of 12
Ozone Good
PM2.5 Good
Flu Activity Not available.
METAR KAPC 170854Z AUTO 31004KT 10SM CLR 15/13 A2981 RMK AO2 SLP086 T01500133 56004 $

More Conditions Fewer Conditions

10-Day Weather Forecast

Almanac

Astronomy

Sep. 17, 2014 Rise Set
Actual Time 6:52 AM PDT 7:14 PM PDT
Civil Twilight 6:26 AM PDT 7:40 PM PDT
Nautical Twilight 5:55 AM PDT 8:11 PM PDT
Astronomical Twilight 5:23 AM PDT 8:43 PM PDT
Moon 1:00 AM PDT 3:24 PM PDT
Length of Visible Light 13h 14m
Length of Day
12h 21m
Tomorrow will be 2m 27s shorter.
Last Quarter, 37% of the Moon is Illuminated
Today
Last Quarter
Sep 24
New
Oct 1
First Quarter
Oct 8
Full
Oct 15
Last Quarter

Today's Extremes

State Highs State Lows

Community

WunderPhotos

Upload Photos

1,753,991 photos uploaded!

Nearby

Air Quality

  Air Quality AQ Index Pollutant
Yesterday Good
PM2.5
Yesterday Good
OZONE
Current Good
PM2.5
Current Good
OZONE
Tuesday Good
PM2.5
Wednesday Good
PM2.5
Thursday Good
PM2.5
Friday Good
PM2.5
Saturday Good
PM2.5
Sunday Good
PM2.5

Snow Depth

Station Depth Elevation
Leavitt Meadows 1 in 7200 ft
Adin Mountain 1 in 6200 ft
Echo Peak 0 in 7800 ft
Summit Meadow 0 in 9122 ft
Tahoe City Cross 0 in 6750 ft

Earthquake Activity

City Distance Mag. Time & Date
Cobb, California 35 miles 2.7 1:23 PM PDT
2014-09-16
Covelo, California 104 miles 3.3 1:17 PM PDT
2014-09-14
Cobb, California 40 miles 2.7 11:07 AM PDT
2014-09-14
Minimum magnitude displayed is 2.5.

Coastal Water Temperatures

Place Temperature
San Francisco, CA 64.0 °F
Richmond, CA 69.1 °F
Port Chicago, CA 70.0 °F

Nearby Weather Stations